sensor_id;sensor_type;location;lat;lon;timestamp;P1;P2;P0
50587;PMS7003;36546;50.516;30.826;2023-05-01T00:00:08;5.10;5.00;4.00
50587;PMS7003;36546;50.516;30.826;2023-05-01T00:01:14;5.70;4.10;2.70
50587;PMS7003;36546;50.516;30.826;2023-05-01T00:02:17;6.50;6.10;4.70
50587;PMS7003;36546;50.516;30.826;2023-05-01T00:03:20;5.20;5.20;4.30
50587;PMS7003;36546;50.516;30.826;2023-05-01T00:04:22;6.90;6.70;5.10
50587;PMS7003;36546;50.516;30.826;2023-05-01T00:05:26;6.10;6.10;5.20
50587;PMS7003;36546;50.516;30.826;2023-05-01T00:06:33;6.40;6.10;5.40
50587;PMS7003;36546;50.516;30.826;2023-05-01T00:07:36;5.64;5.36;4.36
50587;PMS7003;36546;50.516;30.826;2023-05-01T00:08:38;5.90;5.90;4.60
50587;PMS7003;36546;50.516;30.826;2023-05-01T00:09:40;7.30;6.50;5.50
50587;PMS7003;36546;50.516;30.826;2023-05-01T00:10:42;7.10;6.10;5.70
50587;PMS7003;36546;50.516;30.826;2023-05-01T00:11:44;7.40;7.40;5.90
50587;PMS7003;36546;50.516;30.826;2023-05-01T00:12:46;10.20;8.00;6.40
50587;PMS7003;36546;50.516;30.826;2023-05-01T00:13:48;7.22;7.22;5.33
50587;PMS7003;36546;50.516;30.826;2023-05-01T00:14:50;9.30;8.20;6.70
50587;PMS7003;36546;50.516;30.826;2023-05-01T00:15:54;9.18;8.45;6.27
50587;PMS7003;36546;50.516;30.826;2023-05-01T00:16:57;7.30;7.30;5.90
50587;PMS7003;36546;50.516;30.826;2023-05-01T00:18:00;8.50;8.00;6.60
50587;PMS7003;36546;50.516;30.826;2023-05-01T00:19:06;8.20;7.60;6.20
50587;PMS7003;36546;50.516;30.826;2023-05-01T00:20:10;9.10;9.10;7.20
50587;PMS7003;36546;50.516;30.826;2023-05-01T00:21:12;9.00;8.00;6.20
50587;PMS7003;36546;50.516;30.826;2023-05-01T00:22:14;9.20;8.10;5.30
50587;PMS7003;36546;50.516;30.826;2023-05-01T00:23:16;10.60;9.20;6.60
50587;PMS7003;36546;50.516;30.826;2023-05-01T00:24:19;9.60;8.30;6.20
50587;PMS7003;36546;50.516;30.826;2023-05-01T00:25:21;10.70;9.20;7.30
50587;PMS7003;36546;50.516;30.826;2023-05-01T00:26:27;9.00;8.60;6.30
50587;PMS7003;36546;50.516;30.826;2023-05-01T00:27:30;9.70;8.20;6.60
50587;PMS7003;36546;50.516;30.826;2023-05-01T00:28:32;7.10;7.10;6.10
50587;PMS7003;36546;50.516;30.826;2023-05-01T00:29:36;9.00;9.00;7.30
50587;PMS7003;36546;50.516;30.826;2023-05-01T00:30:39;9.60;8.10;6.00
50587;PMS7003;36546;50.516;30.826;2023-05-01T00:31:43;9.55;8.45;6.09
50587;PMS7003;36546;50.516;30.826;2023-05-01T00:32:47;7.50;7.40;5.50
50587;PMS7003;36546;50.516;30.826;2023-05-01T00:33:50;8.60;7.90;5.80
50587;PMS7003;36546;50.516;30.826;2023-05-01T00:34:53;8.00;6.91;5.73
50587;PMS7003;36546;50.516;30.826;2023-05-01T00:35:55;5.30;4.60;3.80
50587;PMS7003;36546;50.516;30.826;2023-05-01T00:36:57;9.80;8.40;6.80
50587;PMS7003;36546;50.516;30.826;2023-05-01T00:38:00;8.60;7.80;6.20
50587;PMS7003;36546;50.516;30.826;2023-05-01T00:39:02;10.00;9.90;7.00
50587;PMS7003;36546;50.516;30.826;2023-05-01T00:40:08;9.20;8.60;6.80
50587;PMS7003;36546;50.516;30.826;2023-05-01T00:41:11;7.80;7.30;6.00
50587;PMS7003;36546;50.516;30.826;2023-05-01T00:42:15;8.60;8.10;6.60
50587;PMS7003;36546;50.516;30.826;2023-05-01T00:43:21;9.00;6.20;4.30
50587;PMS7003;36546;50.516;30.826;2023-05-01T00:44:24;8.30;8.10;6.60
50587;PMS7003;36546;50.516;30.826;2023-05-01T00:45:28;10.40;9.80;7.60
50587;PMS7003;36546;50.516;30.826;2023-05-01T00:46:31;10.20;9.00;7.50
50587;PMS7003;36546;50.516;30.826;2023-05-01T00:47:35;11.20;9.00;7.20
50587;PMS7003;36546;50.516;30.826;2023-05-01T00:48:41;9.20;9.20;6.90
50587;PMS7003;36546;50.516;30.826;2023-05-01T00:49:45;13.00;11.50;9.50
50587;PMS7003;36546;50.516;30.826;2023-05-01T00:50:49;10.40;9.50;7.50
50587;PMS7003;36546;50.516;30.826;2023-05-01T00:51:51;10.40;10.10;8.20
50587;PMS7003;36546;50.516;30.826;2023-05-01T00:52:53;11.10;9.90;8.20
50587;PMS7003;36546;50.516;30.826;2023-05-01T00:53:57;13.00;12.50;9.70
50587;PMS7003;36546;50.516;30.826;2023-05-01T00:55:00;12.90;11.20;9.00
50587;PMS7003;36546;50.516;30.826;2023-05-01T00:56:03;13.90;12.50;9.60
50587;PMS7003;36546;50.516;30.826;2023-05-01T00:57:06;10.10;9.20;7.50
50587;PMS7003;36546;50.516;30.826;2023-05-01T00:58:09;13.10;11.80;8.30
50587;PMS7003;36546;50.516;30.826;2023-05-01T00:59:11;12.10;11.50;8.70
50587;PMS7003;36546;50.516;30.826;2023-05-01T01:00:15;12.70;10.50;8.10
50587;PMS7003;36546;50.516;30.826;2023-05-01T01:01:17;14.40;13.00;9.60
50587;PMS7003;36546;50.516;30.826;2023-05-01T01:02:20;13.30;12.50;9.70
50587;PMS7003;36546;50.516;30.826;2023-05-01T01:03:23;13.40;12.90;10.40
50587;PMS7003;36546;50.516;30.826;2023-05-01T01:04:25;14.00;13.40;10.00
50587;PMS7003;36546;50.516;30.826;2023-05-01T01:05:28;12.20;11.50;8.00
50587;PMS7003;36546;50.516;30.826;2023-05-01T01:07:43;13.00;11.10;7.70
50587;PMS7003;36546;50.516;30.826;2023-05-01T01:08:52;14.50;13.10;9.90
50587;PMS7003;36546;50.516;30.826;2023-05-01T01:11:49;17.30;14.80;10.70
50587;PMS7003;36546;50.516;30.826;2023-05-01T01:14:18;11.50;11.00;6.90
50587;PMS7003;36546;50.516;30.826;2023-05-01T01:21:11;12.80;12.80;10.20
50587;PMS7003;36546;50.516;30.826;2023-05-01T01:22:22;13.70;12.40;8.90
50587;PMS7003;36546;50.516;30.826;2023-05-01T01:23:37;14.70;14.10;10.30
50587;PMS7003;36546;50.516;30.826;2023-05-01T01:26:12;14.70;13.90;10.80
50587;PMS7003;36546;50.516;30.826;2023-05-01T01:34:03;13.20;12.50;9.10
50587;PMS7003;36546;50.516;30.826;2023-05-01T01:35:11;14.90;12.70;9.70
50587;PMS7003;36546;50.516;30.826;2023-05-01T01:36:18;13.70;12.30;9.70
50587;PMS7003;36546;50.516;30.826;2023-05-01T01:37:40;16.10;13.60;10.20
50587;PMS7003;36546;50.516;30.826;2023-05-01T01:38:57;14.60;13.00;9.70
50587;PMS7003;36546;50.516;30.826;2023-05-01T01:40:14;14.40;12.20;9.30
50587;PMS7003;36546;50.516;30.826;2023-05-01T01:41:32;14.80;11.50;8.60
50587;PMS7003;36546;50.516;30.826;2023-05-01T01:42:45;15.30;13.30;9.30
50587;PMS7003;36546;50.516;30.826;2023-05-01T01:45:04;13.70;13.10;10.20
50587;PMS7003;36546;50.516;30.826;2023-05-01T01:46:07;10.00;10.00;7.70
50587;PMS7003;36546;50.516;30.826;2023-05-01T01:47:12;13.90;11.70;8.90
50587;PMS7003;36546;50.516;30.826;2023-05-01T01:48:16;13.09;12.27;8.91
50587;PMS7003;36546;50.516;30.826;2023-05-01T01:49:23;13.30;12.20;10.40
50587;PMS7003;36546;50.516;30.826;2023-05-01T01:50:28;10.90;10.90;8.30
50587;PMS7003;36546;50.516;30.826;2023-05-01T01:51:31;11.00;11.00;8.10
50587;PMS7003;36546;50.516;30.826;2023-05-01T01:52:36;13.60;11.70;8.90
50587;PMS7003;36546;50.516;30.826;2023-05-01T01:53:45;13.70;12.30;9.20
50587;PMS7003;36546;50.516;30.826;2023-05-01T01:54:50;10.70;9.90;7.40
50587;PMS7003;36546;50.516;30.826;2023-05-01T01:55:55;13.70;12.40;9.50
50587;PMS7003;36546;50.516;30.826;2023-05-01T01:57:00;12.90;10.10;7.70
50587;PMS7003;36546;50.516;30.826;2023-05-01T01:58:03;12.30;10.90;8.80
50587;PMS7003;36546;50.516;30.826;2023-05-01T01:59:06;12.40;12.30;8.70
50587;PMS7003;36546;50.516;30.826;2023-05-01T02:00:11;11.10;10.50;8.00
50587;PMS7003;36546;50.516;30.826;2023-05-01T02:01:14;12.90;11.60;8.80
50587;PMS7003;36546;50.516;30.826;2023-05-01T02:02:19;12.20;12.20;8.90
50587;PMS7003;36546;50.516;30.826;2023-05-01T02:03:29;12.90;12.20;9.70
50587;PMS7003;36546;50.516;30.826;2023-05-01T02:04:33;12.90;10.90;9.60
50587;PMS7003;36546;50.516;30.826;2023-05-01T02:05:36;13.00;11.10;8.50
50587;PMS7003;36546;50.516;30.826;2023-05-01T02:06:40;11.50;10.20;8.00
50587;PMS7003;36546;50.516;30.826;2023-05-01T02:07:44;11.80;11.40;8.70
50587;PMS7003;36546;50.516;30.826;2023-05-01T02:08:48;12.20;10.70;8.00
50587;PMS7003;36546;50.516;30.826;2023-05-01T02:09:53;12.80;9.60;7.30
50587;PMS7003;36546;50.516;30.826;2023-05-01T02:10:58;12.60;10.50;7.90
50587;PMS7003;36546;50.516;30.826;2023-05-01T02:12:04;9.70;7.60;6.30
50587;PMS7003;36546;50.516;30.826;2023-05-01T02:13:07;11.60;10.20;7.50
50587;PMS7003;36546;50.516;30.826;2023-05-01T02:14:10;9.40;9.40;7.10
50587;PMS7003;36546;50.516;30.826;2023-05-01T02:15:15;9.80;9.80;7.60
50587;PMS7003;36546;50.516;30.826;2023-05-01T02:16:19;8.90;8.90;7.00
50587;PMS7003;36546;50.516;30.826;2023-05-01T02:17:24;7.00;4.30;2.40
50587;PMS7003;36546;50.516;30.826;2023-05-01T02:18:27;11.50;10.30;8.00
50587;PMS7003;36546;50.516;30.826;2023-05-01T02:19:32;12.00;11.40;8.20
50587;PMS7003;36546;50.516;30.826;2023-05-01T02:20:35;8.80;8.80;6.50
50587;PMS7003;36546;50.516;30.826;2023-05-01T02:21:38;8.70;7.80;6.30
50587;PMS7003;36546;50.516;30.826;2023-05-01T02:22:42;10.40;10.00;8.00
50587;PMS7003;36546;50.516;30.826;2023-05-01T02:23:46;10.80;9.60;7.80
50587;PMS7003;36546;50.516;30.826;2023-05-01T02:24:48;8.10;7.70;6.50
50587;PMS7003;36546;50.516;30.826;2023-05-01T02:25:51;7.50;5.30;4.70
50587;PMS7003;36546;50.516;30.826;2023-05-01T02:27:12;11.00;9.80;6.80
50587;PMS7003;36546;50.516;30.826;2023-05-01T02:28:20;8.70;7.80;6.70
50587;PMS7003;36546;50.516;30.826;2023-05-01T02:29:24;9.70;9.60;7.10
50587;PMS7003;36546;50.516;30.826;2023-05-01T02:30:26;9.10;9.10;6.80
50587;PMS7003;36546;50.516;30.826;2023-05-01T02:31:28;9.70;9.00;7.20
50587;PMS7003;36546;50.516;30.826;2023-05-01T02:32:31;8.60;8.60;7.30
50587;PMS7003;36546;50.516;30.826;2023-05-01T02:33:33;10.50;9.00;7.00
50587;PMS7003;36546;50.516;30.826;2023-05-01T02:34:35;8.20;7.60;6.00
50587;PMS7003;36546;50.516;30.826;2023-05-01T02:35:40;11.10;8.40;7.30
50587;PMS7003;36546;50.516;30.826;2023-05-01T02:36:44;8.90;7.30;6.60
50587;PMS7003;36546;50.516;30.826;2023-05-01T02:37:46;8.91;7.36;6.18
50587;PMS7003;36546;50.516;30.826;2023-05-01T02:38:49;9.73;9.55;7.55
50587;PMS7003;36546;50.516;30.826;2023-05-01T02:39:52;8.10;8.10;6.70
50587;PMS7003;36546;50.516;30.826;2023-05-01T02:40:55;9.50;8.40;6.80
50587;PMS7003;36546;50.516;30.826;2023-05-01T02:41:58;8.60;7.80;6.60
50587;PMS7003;36546;50.516;30.826;2023-05-01T02:43:01;10.30;9.70;6.80
50587;PMS7003;36546;50.516;30.826;2023-05-01T02:44:07;10.00;9.20;5.90
50587;PMS7003;36546;50.516;30.826;2023-05-01T02:46:25;10.40;10.40;8.00
50587;PMS7003;36546;50.516;30.826;2023-05-01T02:47:28;10.70;9.40;7.70
50587;PMS7003;36546;50.516;30.826;2023-05-01T02:48:33;9.00;8.40;6.10
50587;PMS7003;36546;50.516;30.826;2023-05-01T02:49:37;9.40;9.30;8.00
50587;PMS7003;36546;50.516;30.826;2023-05-01T02:50:41;8.90;7.30;5.90
50587;PMS7003;36546;50.516;30.826;2023-05-01T02:51:45;8.70;7.40;6.30
50587;PMS7003;36546;50.516;30.826;2023-05-01T02:52:49;9.20;7.90;6.20
50587;PMS7003;36546;50.516;30.826;2023-05-01T02:54:03;9.10;7.60;6.40
50587;PMS7003;36546;50.516;30.826;2023-05-01T02:55:06;8.20;7.70;6.30
50587;PMS7003;36546;50.516;30.826;2023-05-01T02:56:10;10.30;8.60;6.30
50587;PMS7003;36546;50.516;30.826;2023-05-01T02:57:13;7.27;7.27;6.27
50587;PMS7003;36546;50.516;30.826;2023-05-01T02:58:18;6.70;6.70;5.20
50587;PMS7003;36546;50.516;30.826;2023-05-01T02:59:22;6.70;6.70;5.30
50587;PMS7003;36546;50.516;30.826;2023-05-01T03:00:25;8.40;7.10;6.80
50587;PMS7003;36546;50.516;30.826;2023-05-01T03:01:28;8.00;8.00;6.82
50587;PMS7003;36546;50.516;30.826;2023-05-01T03:02:38;5.50;5.50;4.20
50587;PMS7003;36546;50.516;30.826;2023-05-01T03:03:41;9.80;8.10;6.50
50587;PMS7003;36546;50.516;30.826;2023-05-01T03:04:43;8.60;8.10;6.50
50587;PMS7003;36546;50.516;30.826;2023-05-01T03:05:45;7.00;7.00;5.90
50587;PMS7003;36546;50.516;30.826;2023-05-01T03:06:48;6.82;6.82;5.91
50587;PMS7003;36546;50.516;30.826;2023-05-01T03:07:51;6.40;6.40;5.30
50587;PMS7003;36546;50.516;30.826;2023-05-01T03:08:53;8.20;7.00;5.60
50587;PMS7003;36546;50.516;30.826;2023-05-01T03:09:55;7.70;6.80;5.30
50587;PMS7003;36546;50.516;30.826;2023-05-01T03:10:59;5.20;4.60;3.20
50587;PMS7003;36546;50.516;30.826;2023-05-01T03:12:01;7.40;7.00;5.90
50587;PMS7003;36546;50.516;30.826;2023-05-01T03:13:03;7.00;6.50;5.80
50587;PMS7003;36546;50.516;30.826;2023-05-01T03:14:05;7.20;7.20;6.00
50587;PMS7003;36546;50.516;30.826;2023-05-01T03:15:08;4.40;3.80;2.60
50587;PMS7003;36546;50.516;30.826;2023-05-01T03:16:12;7.80;7.80;6.80
50587;PMS7003;36546;50.516;30.826;2023-05-01T03:17:14;7.20;7.20;5.40
50587;PMS7003;36546;50.516;30.826;2023-05-01T03:18:16;9.10;7.40;6.00
50587;PMS7003;36546;50.516;30.826;2023-05-01T03:19:19;9.10;7.60;6.60
50587;PMS7003;36546;50.516;30.826;2023-05-01T03:20:22;8.40;8.40;6.60
50587;PMS7003;36546;50.516;30.826;2023-05-01T03:21:24;8.30;7.70;5.80
50587;PMS7003;36546;50.516;30.826;2023-05-01T03:22:29;7.00;7.00;6.00
50587;PMS7003;36546;50.516;30.826;2023-05-01T03:23:32;9.50;8.90;6.30
50587;PMS7003;36546;50.516;30.826;2023-05-01T03:24:34;7.00;6.10;5.10
50587;PMS7003;36546;50.516;30.826;2023-05-01T03:25:36;7.00;5.70;5.00
50587;PMS7003;36546;50.516;30.826;2023-05-01T03:26:39;6.90;6.70;5.20
50587;PMS7003;36546;50.516;30.826;2023-05-01T03:27:41;7.80;7.20;5.70
50587;PMS7003;36546;50.516;30.826;2023-05-01T03:28:43;11.00;7.90;6.50
50587;PMS7003;36546;50.516;30.826;2023-05-01T03:29:46;8.20;7.60;6.80
50587;PMS7003;36546;50.516;30.826;2023-05-01T03:30:49;8.40;7.50;6.50
50587;PMS7003;36546;50.516;30.826;2023-05-01T03:31:52;10.10;9.00;6.90
50587;PMS7003;36546;50.516;30.826;2023-05-01T03:32:55;7.40;7.40;6.00
50587;PMS7003;36546;50.516;30.826;2023-05-01T03:33:59;8.90;8.50;6.80
50587;PMS7003;36546;50.516;30.826;2023-05-01T03:35:01;9.40;8.60;6.20
50587;PMS7003;36546;50.516;30.826;2023-05-01T03:36:05;9.30;8.00;6.70
50587;PMS7003;36546;50.516;30.826;2023-05-01T03:37:08;8.00;6.10;5.30
50587;PMS7003;36546;50.516;30.826;2023-05-01T03:38:11;9.80;7.60;6.50
50587;PMS7003;36546;50.516;30.826;2023-05-01T03:39:29;6.80;6.80;5.40
50587;PMS7003;36546;50.516;30.826;2023-05-01T03:40:45;8.60;8.60;7.20
50587;PMS7003;36546;50.516;30.826;2023-05-01T03:42:07;7.60;7.50;5.60
50587;PMS7003;36546;50.516;30.826;2023-05-01T03:43:11;8.50;8.20;6.30
50587;PMS7003;36546;50.516;30.826;2023-05-01T03:44:13;7.10;7.10;5.70
50587;PMS7003;36546;50.516;30.826;2023-05-01T03:45:17;10.40;8.50;6.60
50587;PMS7003;36546;50.516;30.826;2023-05-01T03:46:20;7.80;6.40;5.20
50587;PMS7003;36546;50.516;30.826;2023-05-01T03:47:23;5.70;5.70;4.80
50587;PMS7003;36546;50.516;30.826;2023-05-01T03:48:25;8.50;7.40;5.70
50587;PMS7003;36546;50.516;30.826;2023-05-01T03:49:28;9.50;7.70;6.00
50587;PMS7003;36546;50.516;30.826;2023-05-01T03:50:31;7.20;6.90;5.40
50587;PMS7003;36546;50.516;30.826;2023-05-01T03:51:33;7.00;6.40;5.10
50587;PMS7003;36546;50.516;30.826;2023-05-01T03:52:36;8.30;7.10;5.30
50587;PMS7003;36546;50.516;30.826;2023-05-01T03:53:39;6.70;5.90;4.90
50587;PMS7003;36546;50.516;30.826;2023-05-01T03:54:41;7.10;6.60;5.30
50587;PMS7003;36546;50.516;30.826;2023-05-01T03:55:55;8.50;7.90;6.60
50587;PMS7003;36546;50.516;30.826;2023-05-01T03:57:04;7.00;7.00;5.80
50587;PMS7003;36546;50.516;30.826;2023-05-01T03:58:07;8.00;7.70;5.60
50587;PMS7003;36546;50.516;30.826;2023-05-01T03:59:09;8.10;7.30;5.70
50587;PMS7003;36546;50.516;30.826;2023-05-01T04:00:12;6.40;6.00;4.70
50587;PMS7003;36546;50.516;30.826;2023-05-01T04:01:18;5.60;4.90;4.10
50587;PMS7003;36546;50.516;30.826;2023-05-01T04:02:21;6.20;6.20;5.00
50587;PMS7003;36546;50.516;30.826;2023-05-01T04:03:24;6.90;5.90;4.70
50587;PMS7003;36546;50.516;30.826;2023-05-01T04:04:28;5.40;4.70;3.90
50587;PMS7003;36546;50.516;30.826;2023-05-01T04:05:32;5.90;5.40;4.90
50587;PMS7003;36546;50.516;30.826;2023-05-01T04:06:37;6.30;5.70;4.90
50587;PMS7003;36546;50.516;30.826;2023-05-01T04:07:40;6.70;5.90;4.90
50587;PMS7003;36546;50.516;30.826;2023-05-01T04:08:42;8.00;6.60;4.90
50587;PMS7003;36546;50.516;30.826;2023-05-01T04:09:45;6.30;6.30;5.00
50587;PMS7003;36546;50.516;30.826;2023-05-01T04:10:48;7.00;6.00;4.90
50587;PMS7003;36546;50.516;30.826;2023-05-01T04:11:50;5.70;5.70;5.00
50587;PMS7003;36546;50.516;30.826;2023-05-01T04:12:52;6.20;5.80;5.20
50587;PMS7003;36546;50.516;30.826;2023-05-01T04:13:54;5.30;5.30;4.80
50587;PMS7003;36546;50.516;30.826;2023-05-01T04:14:57;6.90;6.50;5.20
50587;PMS7003;36546;50.516;30.826;2023-05-01T04:15:59;4.90;4.90;3.90
50587;PMS7003;36546;50.516;30.826;2023-05-01T04:17:02;6.82;6.09;4.55
50587;PMS7003;36546;50.516;30.826;2023-05-01T04:18:06;6.00;4.70;4.40
50587;PMS7003;36546;50.516;30.826;2023-05-01T04:19:09;6.80;5.40;4.60
50587;PMS7003;36546;50.516;30.826;2023-05-01T04:20:14;5.80;5.30;4.30
50587;PMS7003;36546;50.516;30.826;2023-05-01T04:21:23;6.50;5.40;4.50
50587;PMS7003;36546;50.516;30.826;2023-05-01T04:22:26;5.90;5.90;4.20
50587;PMS7003;36546;50.516;30.826;2023-05-01T04:23:29;6.70;5.70;4.70
50587;PMS7003;36546;50.516;30.826;2023-05-01T04:24:33;5.80;5.80;4.50
50587;PMS7003;36546;50.516;30.826;2023-05-01T04:25:38;6.30;5.80;4.90
50587;PMS7003;36546;50.516;30.826;2023-05-01T04:26:42;5.80;4.80;4.10
50587;PMS7003;36546;50.516;30.826;2023-05-01T04:27:44;5.90;5.90;4.40
50587;PMS7003;36546;50.516;30.826;2023-05-01T04:28:47;4.55;4.55;3.18
50587;PMS7003;36546;50.516;30.826;2023-05-01T04:29:51;5.50;5.10;4.20
50587;PMS7003;36546;50.516;30.826;2023-05-01T04:30:56;5.30;4.70;3.90
50587;PMS7003;36546;50.516;30.826;2023-05-01T04:31:58;5.40;4.00;3.20
50587;PMS7003;36546;50.516;30.826;2023-05-01T04:33:02;5.30;4.80;3.80
50587;PMS7003;36546;50.516;30.826;2023-05-01T04:34:05;5.70;4.50;3.60
50587;PMS7003;36546;50.516;30.826;2023-05-01T04:35:09;6.00;4.90;3.80
50587;PMS7003;36546;50.516;30.826;2023-05-01T04:36:13;5.70;5.00;3.30
50587;PMS7003;36546;50.516;30.826;2023-05-01T04:37:18;5.00;5.00;3.50
50587;PMS7003;36546;50.516;30.826;2023-05-01T04:38:20;6.30;4.40;3.70
50587;PMS7003;36546;50.516;30.826;2023-05-01T04:39:23;6.40;5.00;4.00
50587;PMS7003;36546;50.516;30.826;2023-05-01T04:40:38;1.90;1.90;0.70
50587;PMS7003;36546;50.516;30.826;2023-05-01T04:41:40;5.20;5.20;4.10
50587;PMS7003;36546;50.516;30.826;2023-05-01T04:42:42;4.40;4.20;3.10
50587;PMS7003;36546;50.516;30.826;2023-05-01T04:43:46;6.00;5.00;3.90
50587;PMS7003;36546;50.516;30.826;2023-05-01T04:44:50;5.20;4.40;3.30
50587;PMS7003;36546;50.516;30.826;2023-05-01T04:45:54;3.90;3.90;3.30
50587;PMS7003;36546;50.516;30.826;2023-05-01T04:46:56;3.50;3.50;2.70
50587;PMS7003;36546;50.516;30.826;2023-05-01T04:47:59;4.10;3.90;3.50
50587;PMS7003;36546;50.516;30.826;2023-05-01T04:49:01;4.80;4.00;3.30
50587;PMS7003;36546;50.516;30.826;2023-05-01T04:50:05;4.30;3.80;3.00
50587;PMS7003;36546;50.516;30.826;2023-05-01T04:51:07;5.70;4.30;3.50
50587;PMS7003;36546;50.516;30.826;2023-05-01T04:52:10;4.50;4.50;4.00
50587;PMS7003;36546;50.516;30.826;2023-05-01T04:53:19;5.60;4.70;3.50
50587;PMS7003;36546;50.516;30.826;2023-05-01T04:54:23;5.70;5.70;3.80
50587;PMS7003;36546;50.516;30.826;2023-05-01T04:55:26;3.40;3.40;3.00
50587;PMS7003;36546;50.516;30.826;2023-05-01T04:56:32;4.80;4.30;3.40
50587;PMS7003;36546;50.516;30.826;2023-05-01T04:57:35;4.80;4.10;3.60
50587;PMS7003;36546;50.516;30.826;2023-05-01T04:58:39;3.70;3.70;2.70
50587;PMS7003;36546;50.516;30.826;2023-05-01T04:59:43;4.80;4.80;3.70
50587;PMS7003;36546;50.516;30.826;2023-05-01T05:00:48;5.30;5.20;4.00
50587;PMS7003;36546;50.516;30.826;2023-05-01T05:01:53;5.10;4.60;3.40
50587;PMS7003;36546;50.516;30.826;2023-05-01T05:02:56;5.00;5.00;4.00
50587;PMS7003;36546;50.516;30.826;2023-05-01T05:04:00;4.70;4.70;3.20
50587;PMS7003;36546;50.516;30.826;2023-05-01T05:05:04;4.90;4.50;3.60
50587;PMS7003;36546;50.516;30.826;2023-05-01T05:06:08;6.00;5.50;4.60
50587;PMS7003;36546;50.516;30.826;2023-05-01T05:07:10;6.50;5.90;4.50
50587;PMS7003;36546;50.516;30.826;2023-05-01T05:08:23;8.40;7.00;5.10
50587;PMS7003;36546;50.516;30.826;2023-05-01T05:09:27;8.60;6.90;4.70
50587;PMS7003;36546;50.516;30.826;2023-05-01T05:10:31;11.10;7.40;5.70
50587;PMS7003;36546;50.516;30.826;2023-05-01T05:11:44;4.50;4.40;2.50
50587;PMS7003;36546;50.516;30.826;2023-05-01T05:12:48;8.70;6.70;4.90
50587;PMS7003;36546;50.516;30.826;2023-05-01T05:13:51;9.64;8.09;5.55
50587;PMS7003;36546;50.516;30.826;2023-05-01T05:14:55;9.00;8.10;5.80
50587;PMS7003;36546;50.516;30.826;2023-05-01T05:15:57;11.20;8.50;6.40
50587;PMS7003;36546;50.516;30.826;2023-05-01T05:17:01;8.70;7.70;5.40
50587;PMS7003;36546;50.516;30.826;2023-05-01T05:18:10;11.00;9.20;5.90
50587;PMS7003;36546;50.516;30.826;2023-05-01T05:19:12;9.10;8.10;5.70
50587;PMS7003;36546;50.516;30.826;2023-05-01T05:20:16;11.50;8.50;6.30
50587;PMS7003;36546;50.516;30.826;2023-05-01T05:21:19;8.80;7.90;6.10
50587;PMS7003;36546;50.516;30.826;2023-05-01T05:22:23;6.90;6.90;5.30
50587;PMS7003;36546;50.516;30.826;2023-05-01T05:23:31;12.00;8.20;5.90
50587;PMS7003;36546;50.516;30.826;2023-05-01T05:24:34;11.64;8.55;6.27
50587;PMS7003;36546;50.516;30.826;2023-05-01T05:25:36;9.80;8.10;5.90
50587;PMS7003;36546;50.516;30.826;2023-05-01T05:26:39;9.30;7.90;5.40
50587;PMS7003;36546;50.516;30.826;2023-05-01T05:27:41;8.70;7.70;6.10
50587;PMS7003;36546;50.516;30.826;2023-05-01T05:28:44;8.20;7.70;5.60
50587;PMS7003;36546;50.516;30.826;2023-05-01T05:29:46;5.40;4.20;2.30
50587;PMS7003;36546;50.516;30.826;2023-05-01T05:30:49;7.60;7.30;5.30
50587;PMS7003;36546;50.516;30.826;2023-05-01T05:31:53;7.80;7.80;5.60
50587;PMS7003;36546;50.516;30.826;2023-05-01T05:32:55;9.60;7.10;4.70
50587;PMS7003;36546;50.516;30.826;2023-05-01T05:33:58;9.36;8.73;6.36
50587;PMS7003;36546;50.516;30.826;2023-05-01T05:35:00;8.10;8.10;5.50
50587;PMS7003;36546;50.516;30.826;2023-05-01T05:36:03;10.20;7.80;5.70
50587;PMS7003;36546;50.516;30.826;2023-05-01T05:37:08;6.70;6.10;5.00
50587;PMS7003;36546;50.516;30.826;2023-05-01T05:38:12;10.50;8.20;6.00
50587;PMS7003;36546;50.516;30.826;2023-05-01T05:39:15;2.30;0.90;0.20
50587;PMS7003;36546;50.516;30.826;2023-05-01T05:40:18;9.20;8.70;6.30
50587;PMS7003;36546;50.516;30.826;2023-05-01T05:41:22;10.40;7.60;5.60
50587;PMS7003;36546;50.516;30.826;2023-05-01T05:42:26;6.70;6.70;4.80
50587;PMS7003;36546;50.516;30.826;2023-05-01T05:43:28;9.10;7.50;4.20
50587;PMS7003;36546;50.516;30.826;2023-05-01T05:45:56;9.70;5.40;4.20
50587;PMS7003;36546;50.516;30.826;2023-05-01T05:47:00;5.40;5.40;3.90
50587;PMS7003;36546;50.516;30.826;2023-05-01T05:48:04;5.20;4.40;3.30
50587;PMS7003;36546;50.516;30.826;2023-05-01T05:49:20;8.50;7.50;5.60
50587;PMS7003;36546;50.516;30.826;2023-05-01T05:50:23;5.82;5.00;4.18
50587;PMS7003;36546;50.516;30.826;2023-05-01T05:51:25;7.40;5.60;4.10
50587;PMS7003;36546;50.516;30.826;2023-05-01T05:52:27;6.10;4.90;4.10
50587;PMS7003;36546;50.516;30.826;2023-05-01T05:53:34;6.40;6.40;4.80
50587;PMS7003;36546;50.516;30.826;2023-05-01T05:54:37;6.50;6.20;4.60
50587;PMS7003;36546;50.516;30.826;2023-05-01T05:55:39;5.70;4.80;4.30
50587;PMS7003;36546;50.516;30.826;2023-05-01T05:56:41;6.70;6.20;4.60
50587;PMS7003;36546;50.516;30.826;2023-05-01T05:57:44;8.90;7.00;4.50
50587;PMS7003;36546;50.516;30.826;2023-05-01T05:58:46;5.00;4.80;3.60
50587;PMS7003;36546;50.516;30.826;2023-05-01T05:59:49;6.70;5.30;4.10
50587;PMS7003;36546;50.516;30.826;2023-05-01T06:00:53;7.40;5.00;4.10
50587;PMS7003;36546;50.516;30.826;2023-05-01T06:01:55;5.50;4.70;3.00
50587;PMS7003;36546;50.516;30.826;2023-05-01T06:02:58;4.64;4.64;3.64
50587;PMS7003;36546;50.516;30.826;2023-05-01T06:04:03;3.40;3.40;2.90
50587;PMS7003;36546;50.516;30.826;2023-05-01T06:05:07;5.50;5.50;4.10
50587;PMS7003;36546;50.516;30.826;2023-05-01T06:06:11;5.40;4.70;3.80
50587;PMS7003;36546;50.516;30.826;2023-05-01T06:07:13;5.00;4.80;3.60
50587;PMS7003;36546;50.516;30.826;2023-05-01T06:08:16;4.50;4.50;3.60
50587;PMS7003;36546;50.516;30.826;2023-05-01T06:09:18;6.60;5.10;3.70
50587;PMS7003;36546;50.516;30.826;2023-05-01T06:10:20;5.50;5.40;4.00
50587;PMS7003;36546;50.516;30.826;2023-05-01T06:11:23;4.10;3.60;2.70
50587;PMS7003;36546;50.516;30.826;2023-05-01T06:12:25;6.64;5.00;3.91
50587;PMS7003;36546;50.516;30.826;2023-05-01T06:13:29;4.50;4.10;3.80
50587;PMS7003;36546;50.516;30.826;2023-05-01T06:14:32;6.10;5.70;4.50
50587;PMS7003;36546;50.516;30.826;2023-05-01T06:16:52;5.40;5.40;3.60
50587;PMS7003;36546;50.516;30.826;2023-05-01T06:17:55;5.70;4.50;3.10
50587;PMS7003;36546;50.516;30.826;2023-05-01T06:18:58;5.30;5.30;3.80
50587;PMS7003;36546;50.516;30.826;2023-05-01T06:20:01;4.27;4.00;3.27
50587;PMS7003;36546;50.516;30.826;2023-05-01T06:21:04;5.90;4.50;2.90
50587;PMS7003;36546;50.516;30.826;2023-05-01T06:22:06;4.30;4.00;3.30
50587;PMS7003;36546;50.516;30.826;2023-05-01T06:23:11;4.30;3.20;2.30
50587;PMS7003;36546;50.516;30.826;2023-05-01T06:24:19;4.50;3.50;2.70
50587;PMS7003;36546;50.516;30.826;2023-05-01T06:25:23;4.60;4.10;3.00
50587;PMS7003;36546;50.516;30.826;2023-05-01T06:26:25;4.09;3.36;3.00
50587;PMS7003;36546;50.516;30.826;2023-05-01T06:27:28;5.00;3.90;2.50
50587;PMS7003;36546;50.516;30.826;2023-05-01T06:28:30;4.10;4.10;3.90
50587;PMS7003;36546;50.516;30.826;2023-05-01T06:29:33;6.60;4.70;3.30
50587;PMS7003;36546;50.516;30.826;2023-05-01T06:30:36;3.90;3.90;3.10